• Join FlightAware (Why Join?)
  • Login
  • US Flag 
11:47AM EDT


 

Airport Tracker/Info


-or-


 

Live Flight TrackerFlight Track Log ✈ PWA444 ✈ 28-Jun-2013 ✈ KIAD - KUES

Flight Track Log - Related Links

Times and Time Zones

All times are in EDT time to prevent confusion due to time zone crossing. See the PWA444 flight status page for this flight to view local times or setup timezone preferences in your user account.

Time Position Orientation Groundspeed Altitude Reporting Facility
EDT Latitude Longitude Course Direction KTS MPH feet Rate Location/Type
10:05PM 38.9333 -77.5000 311° West 226 260 2,700  Level Potomac TRACON
10:06PM 38.9667 -77.5500 311° West 264 304 5,500 3,300 Climbing Potomac TRACON
10:07PM 39.0333 -77.5667 349° North 284 327 9,000 2,760 Climbing Potomac TRACON
10:09PM 39.1753 -77.6453 337° Northwest 327 376 12,900 2,520 Climbing Washington Center
10:10PM 39.2681 -77.7014 335° Northwest 350 403 15,600 2,820 Climbing Washington Center
10:11PM 39.3650 -77.7606 335° Northwest 366 421 18,600 2,640 Climbing Washington Center
10:12PM 39.4617 -77.8225 334° Northwest 380 437 21,000 2,040 Climbing Washington Center
10:13PM 39.5414 -77.9167 318° Northwest 385 443 22,800 1,920 Climbing Washington Center
10:14PM 39.5908 -78.0419 297° West 385 443 24,900 2,160 Climbing Washington Center
10:15PM 39.6556 -78.2506 292° West 366 421 28,500 1,920 Climbing Cleveland Center
10:16PM 39.6936 -78.3842 290° West 378 435 30,000 1,860 Climbing Cleveland Center
10:17PM 39.7317 -78.5181 290° West 394 453 32,300 2,220 Climbing Cleveland Center
10:18PM 39.7714 -78.6464 292° West 394 453 34,500 2,040 Climbing Cleveland Center
10:19PM 39.8047 -78.7781 288° West 389 448 36,400 1,680 Climbing Cleveland Center
10:20PM 39.8422 -78.9122 290° West 389 448 37,900 1,200 Climbing Cleveland Center
10:21PM 39.8794 -79.0247 293° West 383 441 38,900 1,020 Climbing Cleveland Center
10:22PM 39.9186 -79.1567 291° West 383 441 40,000 960 Climbing Cleveland Center
10:23PM 39.9556 -79.2911 290° West 383 441 40,900 840 Climbing Cleveland Center
10:24PM 40.0050 -79.4231 296° West 389 448 41,700 720 Climbing Cleveland Center
10:25PM 40.0708 -79.5494 304° West 404 465 42,400 600 Climbing Cleveland Center
10:26PM 40.1344 -79.6733 304° West 414 476 43,000 300 Climbing Cleveland Center
10:27PM 40.2000 -79.8003 304° West 419 482 43,000  Level Cleveland Center
10:28PM 40.2633 -79.9275 303° West 424 488 43,000  Level Cleveland Center
10:29PM 40.3350 -80.0739 303° West 436 502 43,000  Level Cleveland Center
10:30PM 40.4022 -80.2014 305° West 436 502 43,000  Level Cleveland Center
10:31PM 40.4672 -80.3347 303° West 436 502 43,000  Level Cleveland Center
10:32PM 40.5383 -80.4656 306° West 436 502 43,000  Level Cleveland Center
10:33PM 40.6008 -80.5994 302° West 436 502 43,000  Level Cleveland Center
10:34PM 40.6675 -80.7281 304° West 428 493 43,000  Level Cleveland Center
10:35PM 40.7339 -80.8625 303° West 433 498 43,000  Level Cleveland Center
10:36PM 40.7981 -80.9944 303° West 433 498 43,000  Level Cleveland Center
10:37PM 40.8539 -81.1183 301° West 433 498 43,000  Level Cleveland Center
10:38PM 40.9219 -81.2536 304° West 433 498 43,000  Level Cleveland Center
10:39PM 40.9858 -81.3864 303° West 433 498 43,000  Level Cleveland Center
10:40PM 41.0453 -81.5164 301° West 433 498 43,000  Level Cleveland Center
10:41PM 41.1147 -81.6608 303° West 433 498 43,000  Level Cleveland Center
10:42PM 41.1864 -81.7944 306° West 438 504 43,000  Level Cleveland Center
10:43PM 41.2517 -81.9225 304° West 438 504 43,000 -660 Level Cleveland Center
10:44PM 41.3189 -82.0567 304° West 438 504 41,700 -1,320 Descending Cleveland Center
10:45PM 41.3756 -82.1825 301° West 444 511 40,400 -1,380 Descending Cleveland Center
10:46PM 41.4464 -82.3228 304° West 449 517 39,000 -1,200 Descending Cleveland Center
10:47PM 41.5150 -82.4606 304° West 449 517 38,000 -540 Descending Cleveland Center
10:48PM 41.5817 -82.5958 303° West 449 517 38,000  Level Cleveland Center
10:49PM 41.6478 -82.7367 302° West 449 517 38,000  Level Cleveland Center
10:50PM 41.7161 -82.8781 303° West 449 517 38,000  Level Cleveland Center
10:51PM 41.7839 -83.0169 303° West 444 511 38,000  Level Cleveland Center
10:52PM 41.8517 -83.1589 303° West 449 517 38,000  Level Cleveland Center
10:53PM 41.9294 -83.3156 304° West 449 517 38,000  Level Cleveland Center
10:54PM 41.9928 -83.4553 301° West 454 522 38,000  Level Cleveland Center
10:55PM 42.0542 -83.5839 303° West 454 522 38,000  Level Cleveland Center
10:56PM 42.1211 -83.7272 302° West 454 522 38,000  Level Cleveland Center
10:57PM 42.1958 -83.8850 303° West 454 522 38,000  Level Cleveland Center
10:58PM 42.2647 -84.0317 302° West 459 528 38,000  Level Cleveland Center
10:59PM 42.3311 -84.1758 302° West 459 528 38,000  Level Cleveland Center
11:00PM 42.3975 -84.3172 302° West 459 528 38,000  Level Cleveland Center
11:01PM 42.4547 -84.4358 303° West 448 516 38,000  Level Chicago Center
11:02PM 42.5206 -84.5800 302° West 451 519 38,000  Level Chicago Center
11:03PM 42.5867 -84.7225 302° West 449 517 38,000  Level Chicago Center
11:04PM 42.6514 -84.8656 302° West 447 514 38,000  Level Chicago Center
11:05PM 42.7172 -85.0097 302° West 449 517 38,000  Level Chicago Center
11:06PM 42.7678 -85.2022 290° West 454 522 38,000  Level Chicago Center
11:07PM 42.8033 -85.3664 286° West 451 519 38,000 -840 Level Chicago Center
11:08PM 42.8397 -85.5319 287° West 458 527 36,400 -2,040 Descending Chicago Center
11:09PM 42.8750 -85.6961 286° West 453 521 33,900 -2,400 Descending Chicago Center
11:10PM 42.9094 -85.8603 286° West 448 516 31,500 -2,460 Descending Chicago Center
11:11PM 42.9453 -86.0311 286° West 454 522 28,900 -2,520 Descending Chicago Center
11:12PM 42.9814 -86.1975 287° West 448 516 26,400 -2,400 Descending Chicago Center
11:13PM 43.0147 -86.3556 286° West 432 497 24,100 -2,220 Descending Chicago Center
11:14PM 43.0450 -86.5031 286° West 404 465 22,000 -2,100 Descending Chicago Center
11:16PM 43.0753 -86.6511 286° West 401 461 19,900 -2,280 Descending Chicago Center
11:17PM 43.1050 -86.7931 286° West 393 452 17,400 -2,220 Descending Chicago Center
11:18PM 43.1325 -86.9322 285° West 383 441 15,400 -1,680 Descending Chicago Center
11:19PM 43.1519 -87.0936 279° West 356 410 14,000 -1,080 Descending Chicago Center
11:20PM 43.1478 -87.2331 268° West 364 419 13,200 -1,140 Descending Chicago Center
11:21PM 43.1431 -87.3706 267° West 365 420 11,700 -1,560 Descending Chicago Center
11:22PM 43.1308 -87.5142 263° West 355 409 10,100 -840 Descending Chicago Center
11:23PM 43.1208 -87.6469 264° West 353 406 10,000 -660 Descending Chicago Center
11:24PM 43.1111 -87.7622 263° West 302 348 8,800 -1,560 Descending Chicago Center
11:25PM 43.1031 -87.8694 264° West 284 327 6,900 -1,620 Descending Chicago Center
11:26PM 43.0936 -87.9769 263° West 282 325 5,600 -1,380 Descending Chicago Center
11:27PM 43.0794 -88.0831 260° West 281 323 4,100 -1,260 Descending Chicago Center
11:28PM 43.0606 -88.1736 254° West 274 315 3,100 -1,020 Descending Chicago Center